Mississagi — CFG8050 — position and weather

sailwx.info

Track history (hours):
 
Tides and Currents Weather Stations Pressure Air Temp Water Temp Dewpoint Dewpoint Depression Visibility Wind Speed Wind Dir Waves Ship Positions

Mississagi

Last reported at 2015-Jul-29 07:33 UTC. Time now 2015-Aug-01 18:12 UTC.
Position N 45°37' W 083°31'.

Length 189 m; draft 7.2 m.

Type: Cargo ship. MMSI: 316004940.

Date/timePositionNaut miles runAvg speedWind from/ knotsBaromVisibWave heightAir tempDewpointWater temp
2015-Jul-29 07:33N 45°37' W 083°31'1111.3
2015-Jul-29 06:33N 45°46' W 083°41'1111.0
2015-Jul-29 05:33N 45°54' W 083°51'5 4.9
2015-Jul-29 04:33N 45°59' W 083°53'0 0.0
2015-Jul-29 03:25N 45°59' W 083°53'0 0.0
2015-Jul-29 02:33N 45°59' W 083°53'0 0.0
2015-Jul-29 01:33N 45°59' W 083°53'7 7.2
2015-Jul-29 00:33N 45°55' W 084°01'9 9.2
2015-Jul-28 23:33N 45°58' W 084°14'2 2.1
2015-Jul-28 22:33N 45°59' W 084°16'0 0.0
2015-Jul-28 21:33N 45°59' W 084°16'0 0.0
2015-Jul-28 20:33N 45°59' W 084°16'0 0.0
2015-Jul-28 19:33N 45°59' W 084°16'0 0.0
2015-Jul-28 18:33N 45°59' W 084°16'0 0.0
2015-Jul-28 17:33N 45°59' W 084°16'0 0.0
2015-Jul-28 16:33N 45°59' W 084°16'0 0.0
2015-Jul-28 15:33N 45°59' W 084°16'4 4.0
2015-Jul-28 14:33N 45°56' W 084°13'1211.6
2015-Jul-28 13:33N 45°52' W 083°57'1212.2
2015-Jul-28 12:33N 45°49' W 083°40'1212.2
2015-Jul-28 11:33N 45°47' W 083°23'1111.1
2015-Jul-28 10:32N 45°56' W 083°14'1211.9
2015-Jul-28 09:33N 46°02' W 082°60'1411.5
2015-Jul-28 08:19N 46°11' W 082°43'2 1.9
2015-Jul-28 07:33N 46°12' W 082°42'50 4.5
2015-Jul-27 20:17N 45°48' W 083°46'811.4
2015-Jul-27 19:33N 45°49' W 083°58'1111.5
2015-Jul-27 18:33N 45°51' W 084°14'1111.2
2015-Jul-27 17:33N 45°50' W 084°30'1111.1
2015-Jul-27 16:33N 45°49' W 084°46'1111.4
2015-Jul-27 15:33N 45°51' W 085°02'1111.2
2015-Jul-27 14:33N 45°52' W 085°18'1111.1
2015-Jul-27 13:33N 45°54' W 085°34'1110.9
2015-Jul-27 12:33N 45°54' W 085°50'4 4.1
2015-Jul-27 11:33N 45°58' W 085°52'0 0.0
2015-Jul-27 10:33N 45°58' W 085°52'0 0.0
2015-Jul-27 09:33N 45°58' W 085°52'0 0.0
2015-Jul-27 08:33N 45°58' W 085°52'0 0.0
2015-Jul-27 07:33N 45°58' W 085°52'0 0.0
2015-Jul-27 06:33N 45°58' W 085°52'0 0.0
2015-Jul-27 05:33N 45°58' W 085°52'0 0.1
2015-Jul-27 04:33N 45°58' W 085°52'6 6.3
2015-Jul-27 03:33N 45°55' W 085°44'1212.1
2015-Jul-27 02:33N 45°53' W 085°27'1212.1
2015-Jul-27 01:33N 45°52' W 085°10'1211.9
2015-Jul-27 00:33N 45°50' W 084°53'1111.5
2015-Jul-26 23:33N 45°46' W 084°37'1211.6
2015-Jul-26 22:33N 45°41' W 084°23'1211.9
2015-Jul-26 21:33N 45°38' W 084°06'20 0.5
2015-Jul-25 05:30N 45°55' W 083°51'12 9.5
2015-Jul-25 04:16N 46°04' W 084°01'33 5.8
2015-Jul-24 22:34N 46°28' W 084°34'  
2015-Jul-22 13:33N 46°23' W 084°14'9 8.3
2015-Jul-22 12:31N 46°16' W 084°07'8 8.4
2015-Jul-22 11:34N 46°09' W 084°02'10 9.9
2015-Jul-22 10:34N 46°02' W 083°53'1110.9
2015-Jul-22 09:34N 45°51' W 083°48'1212.1
2015-Jul-22 08:33N 45°41' W 083°38'  
Track history (hours):
 
Tides and Currents Weather Stations Pressure Air Temp Water Temp Dewpoint Dewpoint Depression Visibility Wind Speed Wind Dir Waves Ship Positions

Mississagi

Last reported at 2015-Jul-29 07:33 UTC. Time now 2015-Aug-01 18:12 UTC.
Position N 45°37' W 083°31'.

Length 189 m; draft 7.2 m.

Type: Cargo ship. MMSI: 316004940.

Date/timePositionNaut miles runAvg speedWind from/ knotsBaromVisibWave heightAir tempDewpointWater temp
2015-Jul-29 07:33N 45°37' W 083°31'1111.3
2015-Jul-29 06:33N 45°46' W 083°41'1111.0
2015-Jul-29 05:33N 45°54' W 083°51'5 4.9
2015-Jul-29 04:33N 45°59' W 083°53'0 0.0
2015-Jul-29 03:25N 45°59' W 083°53'0 0.0
2015-Jul-29 02:33N 45°59' W 083°53'0 0.0
2015-Jul-29 01:33N 45°59' W 083°53'7 7.2
2015-Jul-29 00:33N 45°55' W 084°01'9 9.2
2015-Jul-28 23:33N 45°58' W 084°14'2 2.1
2015-Jul-28 22:33N 45°59' W 084°16'0 0.0
2015-Jul-28 21:33N 45°59' W 084°16'0 0.0
2015-Jul-28 20:33N 45°59' W 084°16'0 0.0
2015-Jul-28 19:33N 45°59' W 084°16'0 0.0
2015-Jul-28 18:33N 45°59' W 084°16'0 0.0
2015-Jul-28 17:33N 45°59' W 084°16'0 0.0
2015-Jul-28 16:33N 45°59' W 084°16'0 0.0
2015-Jul-28 15:33N 45°59' W 084°16'4 4.0
2015-Jul-28 14:33N 45°56' W 084°13'1211.6
2015-Jul-28 13:33N 45°52' W 083°57'1212.2
2015-Jul-28 12:33N 45°49' W 083°40'1212.2
2015-Jul-28 11:33N 45°47' W 083°23'1111.1
2015-Jul-28 10:32N 45°56' W 083°14'1211.9
2015-Jul-28 09:33N 46°02' W 082°60'1411.5
2015-Jul-28 08:19N 46°11' W 082°43'2 1.9
2015-Jul-28 07:33N 46°12' W 082°42'50 4.5
2015-Jul-27 20:17N 45°48' W 083°46'811.4
2015-Jul-27 19:33N 45°49' W 083°58'1111.5
2015-Jul-27 18:33N 45°51' W 084°14'1111.2
2015-Jul-27 17:33N 45°50' W 084°30'1111.1
2015-Jul-27 16:33N 45°49' W 084°46'1111.4
2015-Jul-27 15:33N 45°51' W 085°02'1111.2
2015-Jul-27 14:33N 45°52' W 085°18'1111.1
2015-Jul-27 13:33N 45°54' W 085°34'1110.9
2015-Jul-27 12:33N 45°54' W 085°50'4 4.1
2015-Jul-27 11:33N 45°58' W 085°52'0 0.0
2015-Jul-27 10:33N 45°58' W 085°52'0 0.0
2015-Jul-27 09:33N 45°58' W 085°52'0 0.0
2015-Jul-27 08:33N 45°58' W 085°52'0 0.0
2015-Jul-27 07:33N 45°58' W 085°52'0 0.0
2015-Jul-27 06:33N 45°58' W 085°52'0 0.0
2015-Jul-27 05:33N 45°58' W 085°52'0 0.1
2015-Jul-27 04:33N 45°58' W 085°52'6 6.3
2015-Jul-27 03:33N 45°55' W 085°44'1212.1
2015-Jul-27 02:33N 45°53' W 085°27'1212.1
2015-Jul-27 01:33N 45°52' W 085°10'1211.9
2015-Jul-27 00:33N 45°50' W 084°53'1111.5
2015-Jul-26 23:33N 45°46' W 084°37'1211.6
2015-Jul-26 22:33N 45°41' W 084°23'1211.9
2015-Jul-26 21:33N 45°38' W 084°06'20 0.5
2015-Jul-25 05:30N 45°55' W 083°51'12 9.5
2015-Jul-25 04:16N 46°04' W 084°01'33 5.8
2015-Jul-24 22:34N 46°28' W 084°34'  
2015-Jul-22 13:33N 46°23' W 084°14'9 8.3
2015-Jul-22 12:31N 46°16' W 084°07'8 8.4
2015-Jul-22 11:34N 46°09' W 084°02'10 9.9
2015-Jul-22 10:34N 46°02' W 083°53'1110.9
2015-Jul-22 09:34N 45°51' W 083°48'1212.1
2015-Jul-22 08:33N 45°41' W 083°38'  

Dump ship's entire track history